sensor_id;sensor_type;location;lat;lon;timestamp;temperature;humidity
44215;DHT22;29884;47.450;19.124;2023-05-27T00:00:03;19.10;99.90
44215;DHT22;29884;47.450;19.124;2023-05-27T00:02:29;19.10;99.90
44215;DHT22;29884;47.450;19.124;2023-05-27T00:04:55;19.10;99.90
44215;DHT22;29884;47.450;19.124;2023-05-27T00:07:21;19.00;99.90
44215;DHT22;29884;47.450;19.124;2023-05-27T00:09:46;19.00;99.90
44215;DHT22;29884;47.450;19.124;2023-05-27T00:12:12;19.00;99.90
44215;DHT22;29884;47.450;19.124;2023-05-27T00:14:38;19.00;99.90
44215;DHT22;29884;47.450;19.124;2023-05-27T00:17:03;19.00;99.90
44215;DHT22;29884;47.450;19.124;2023-05-27T00:19:32;18.90;99.90
44215;DHT22;29884;47.450;19.124;2023-05-27T00:21:58;18.90;99.90
44215;DHT22;29884;47.450;19.124;2023-05-27T00:24:24;18.90;99.90
44215;DHT22;29884;47.450;19.124;2023-05-27T00:26:50;18.90;99.90
44215;DHT22;29884;47.450;19.124;2023-05-27T00:29:16;19.00;99.90
44215;DHT22;29884;47.450;19.124;2023-05-27T00:31:42;19.00;99.90
44215;DHT22;29884;47.450;19.124;2023-05-27T00:34:08;18.90;99.90
44215;DHT22;29884;47.450;19.124;2023-05-27T00:36:34;19.00;99.90
44215;DHT22;29884;47.450;19.124;2023-05-27T00:39:01;18.90;99.90
44215;DHT22;29884;47.450;19.124;2023-05-27T00:41:27;18.90;99.90
44215;DHT22;29884;47.450;19.124;2023-05-27T00:43:53;18.90;99.90
44215;DHT22;29884;47.450;19.124;2023-05-27T00:46:19;18.90;99.90
44215;DHT22;29884;47.450;19.124;2023-05-27T00:48:46;18.90;99.90
44215;DHT22;29884;47.450;19.124;2023-05-27T00:51:12;18.90;99.90
44215;DHT22;29884;47.450;19.124;2023-05-27T00:53:42;18.90;99.90
44215;DHT22;29884;47.450;19.124;2023-05-27T00:56:09;18.90;99.90
44215;DHT22;29884;47.450;19.124;2023-05-27T00:58:38;18.90;99.90
44215;DHT22;29884;47.450;19.124;2023-05-27T01:01:04;18.90;99.90
44215;DHT22;29884;47.450;19.124;2023-05-27T01:03:31;18.90;99.90
44215;DHT22;29884;47.450;19.124;2023-05-27T01:11:56;18.80;99.90
44215;DHT22;29884;47.450;19.124;2023-05-27T01:14:25;18.80;99.90
44215;DHT22;29884;47.450;19.124;2023-05-27T01:16:51;18.80;99.90
44215;DHT22;29884;47.450;19.124;2023-05-27T01:19:34;18.80;99.90
44215;DHT22;29884;47.450;19.124;2023-05-27T01:22:01;18.80;99.90
44215;DHT22;29884;47.450;19.124;2023-05-27T01:24:27;18.80;99.90
44215;DHT22;29884;47.450;19.124;2023-05-27T01:26:53;18.80;99.90
44215;DHT22;29884;47.450;19.124;2023-05-27T01:29:21;18.70;99.90
44215;DHT22;29884;47.450;19.124;2023-05-27T01:32:11;18.70;99.90
44215;DHT22;29884;47.450;19.124;2023-05-27T01:37:21;18.70;99.90
44215;DHT22;29884;47.450;19.124;2023-05-27T01:39:50;18.60;99.90
44215;DHT22;29884;47.450;19.124;2023-05-27T01:42:16;18.60;99.90
44215;DHT22;29884;47.450;19.124;2023-05-27T01:44:45;18.60;99.90
44215;DHT22;29884;47.450;19.124;2023-05-27T01:47:11;18.60;99.90
44215;DHT22;29884;47.450;19.124;2023-05-27T01:49:37;18.60;99.90
44215;DHT22;29884;47.450;19.124;2023-05-27T01:52:02;18.60;99.90
44215;DHT22;29884;47.450;19.124;2023-05-27T01:54:28;18.50;99.90
44215;DHT22;29884;47.450;19.124;2023-05-27T01:56:54;18.50;99.90
44215;DHT22;29884;47.450;19.124;2023-05-27T01:59:19;18.50;99.90
44215;DHT22;29884;47.450;19.124;2023-05-27T02:01:45;18.50;99.90
44215;DHT22;29884;47.450;19.124;2023-05-27T02:04:11;18.40;99.90
44215;DHT22;29884;47.450;19.124;2023-05-27T02:06:37;18.40;99.90
44215;DHT22;29884;47.450;19.124;2023-05-27T02:09:03;18.40;99.90
44215;DHT22;29884;47.450;19.124;2023-05-27T02:11:29;18.30;99.90
44215;DHT22;29884;47.450;19.124;2023-05-27T02:13:55;18.30;99.90
44215;DHT22;29884;47.450;19.124;2023-05-27T02:16:21;18.30;99.90
44215;DHT22;29884;47.450;19.124;2023-05-27T02:18:48;18.20;99.90
44215;DHT22;29884;47.450;19.124;2023-05-27T02:21:16;18.20;99.90
44215;DHT22;29884;47.450;19.124;2023-05-27T02:23:42;18.20;99.90
44215;DHT22;29884;47.450;19.124;2023-05-27T02:26:08;18.10;99.90
44215;DHT22;29884;47.450;19.124;2023-05-27T02:28:33;18.10;99.90
44215;DHT22;29884;47.450;19.124;2023-05-27T02:30:59;18.10;99.90
44215;DHT22;29884;47.450;19.124;2023-05-27T02:33:25;18.10;99.90
44215;DHT22;29884;47.450;19.124;2023-05-27T02:35:51;18.10;99.90
44215;DHT22;29884;47.450;19.124;2023-05-27T02:38:17;18.00;99.90
44215;DHT22;29884;47.450;19.124;2023-05-27T02:40:42;18.00;99.90
44215;DHT22;29884;47.450;19.124;2023-05-27T02:43:08;18.00;99.90
44215;DHT22;29884;47.450;19.124;2023-05-27T02:45:34;18.00;99.90
44215;DHT22;29884;47.450;19.124;2023-05-27T02:48:00;17.90;99.90
44215;DHT22;29884;47.450;19.124;2023-05-27T02:50:28;17.90;99.90
44215;DHT22;29884;47.450;19.124;2023-05-27T02:52:54;17.90;99.90
44215;DHT22;29884;47.450;19.124;2023-05-27T02:55:20;17.90;99.90
44215;DHT22;29884;47.450;19.124;2023-05-27T02:57:46;17.90;99.90
44215;DHT22;29884;47.450;19.124;2023-05-27T03:00:12;17.90;99.90
44215;DHT22;29884;47.450;19.124;2023-05-27T03:02:39;17.90;99.90
44215;DHT22;29884;47.450;19.124;2023-05-27T03:05:05;17.90;99.90
44215;DHT22;29884;47.450;19.124;2023-05-27T03:07:31;18.00;99.90
44215;DHT22;29884;47.450;19.124;2023-05-27T03:09:57;18.00;99.90
44215;DHT22;29884;47.450;19.124;2023-05-27T03:12:23;18.00;99.90
44215;DHT22;29884;47.450;19.124;2023-05-27T03:14:50;18.00;99.90
44215;DHT22;29884;47.450;19.124;2023-05-27T03:17:16;18.00;99.90
44215;DHT22;29884;47.450;19.124;2023-05-27T03:19:42;18.00;99.90
44215;DHT22;29884;47.450;19.124;2023-05-27T03:22:08;18.00;99.90
44215;DHT22;29884;47.450;19.124;2023-05-27T03:24:35;18.00;99.90
44215;DHT22;29884;47.450;19.124;2023-05-27T03:27:01;18.00;99.90
44215;DHT22;29884;47.450;19.124;2023-05-27T03:29:27;18.00;99.90
44215;DHT22;29884;47.450;19.124;2023-05-27T03:31:53;18.10;99.90
44215;DHT22;29884;47.450;19.124;2023-05-27T03:34:18;18.10;99.90
44215;DHT22;29884;47.450;19.124;2023-05-27T03:36:44;18.10;99.90
44215;DHT22;29884;47.450;19.124;2023-05-27T03:39:12;18.10;99.90
44215;DHT22;29884;47.450;19.124;2023-05-27T03:41:37;18.10;99.90
44215;DHT22;29884;47.450;19.124;2023-05-27T03:44:03;18.10;99.90
44215;DHT22;29884;47.450;19.124;2023-05-27T03:46:29;18.10;99.90
44215;DHT22;29884;47.450;19.124;2023-05-27T03:48:55;18.10;99.90
44215;DHT22;29884;47.450;19.124;2023-05-27T03:51:21;18.10;99.90
44215;DHT22;29884;47.450;19.124;2023-05-27T03:53:47;18.10;99.90
44215;DHT22;29884;47.450;19.124;2023-05-27T03:56:13;18.10;99.90
44215;DHT22;29884;47.450;19.124;2023-05-27T03:58:39;18.10;99.90
44215;DHT22;29884;47.450;19.124;2023-05-27T04:01:05;18.10;99.90
44215;DHT22;29884;47.450;19.124;2023-05-27T04:03:31;18.10;99.90
44215;DHT22;29884;47.450;19.124;2023-05-27T04:05:57;18.10;99.90
44215;DHT22;29884;47.450;19.124;2023-05-27T04:08:24;18.10;99.90
44215;DHT22;29884;47.450;19.124;2023-05-27T04:10:52;18.10;99.90
44215;DHT22;29884;47.450;19.124;2023-05-27T04:13:18;18.20;99.90
44215;DHT22;29884;47.450;19.124;2023-05-27T04:15:44;18.20;99.90
44215;DHT22;29884;47.450;19.124;2023-05-27T04:18:10;18.20;99.90
44215;DHT22;29884;47.450;19.124;2023-05-27T04:20:40;18.30;99.90
44215;DHT22;29884;47.450;19.124;2023-05-27T04:23:08;18.30;99.90
44215;DHT22;29884;47.450;19.124;2023-05-27T04:25:34;18.30;99.90
44215;DHT22;29884;47.450;19.124;2023-05-27T04:28:05;18.40;99.90
44215;DHT22;29884;47.450;19.124;2023-05-27T04:30:32;18.40;99.90
44215;DHT22;29884;47.450;19.124;2023-05-27T04:32:59;18.40;99.90
44215;DHT22;29884;47.450;19.124;2023-05-27T04:35:25;18.50;99.90
44215;DHT22;29884;47.450;19.124;2023-05-27T04:37:51;18.50;99.90
44215;DHT22;29884;47.450;19.124;2023-05-27T04:40:17;18.50;99.90
44215;DHT22;29884;47.450;19.124;2023-05-27T04:42:43;18.50;99.90
44215;DHT22;29884;47.450;19.124;2023-05-27T04:45:09;18.60;99.90
44215;DHT22;29884;47.450;19.124;2023-05-27T04:47:39;18.60;99.90
44215;DHT22;29884;47.450;19.124;2023-05-27T04:50:08;18.60;99.90
44215;DHT22;29884;47.450;19.124;2023-05-27T04:52:34;18.60;99.90
44215;DHT22;29884;47.450;19.124;2023-05-27T04:55:09;18.70;99.90
44215;DHT22;29884;47.450;19.124;2023-05-27T04:57:35;18.70;99.90
44215;DHT22;29884;47.450;19.124;2023-05-27T05:00:02;18.80;99.90
44215;DHT22;29884;47.450;19.124;2023-05-27T05:02:29;18.80;99.90
44215;DHT22;29884;47.450;19.124;2023-05-27T05:05:09;18.90;99.90
44215;DHT22;29884;47.450;19.124;2023-05-27T05:07:38;19.00;99.90
44215;DHT22;29884;47.450;19.124;2023-05-27T05:10:07;19.00;99.90
44215;DHT22;29884;47.450;19.124;2023-05-27T05:12:33;18.90;99.90
44215;DHT22;29884;47.450;19.124;2023-05-27T05:14:59;18.90;99.90
44215;DHT22;29884;47.450;19.124;2023-05-27T05:17:25;18.90;99.90
44215;DHT22;29884;47.450;19.124;2023-05-27T05:19:52;18.80;99.90
44215;DHT22;29884;47.450;19.124;2023-05-27T05:22:18;18.70;99.90
44215;DHT22;29884;47.450;19.124;2023-05-27T05:24:51;18.70;99.90
44215;DHT22;29884;47.450;19.124;2023-05-27T05:27:16;18.80;99.90
44215;DHT22;29884;47.450;19.124;2023-05-27T05:29:42;18.80;99.90
44215;DHT22;29884;47.450;19.124;2023-05-27T05:32:09;18.90;99.90
44215;DHT22;29884;47.450;19.124;2023-05-27T05:34:37;19.00;99.90
44215;DHT22;29884;47.450;19.124;2023-05-27T05:37:03;18.90;99.90
44215;DHT22;29884;47.450;19.124;2023-05-27T05:39:29;19.00;99.90
44215;DHT22;29884;47.450;19.124;2023-05-27T05:41:54;19.00;99.90
44215;DHT22;29884;47.450;19.124;2023-05-27T05:44:21;19.10;99.90
44215;DHT22;29884;47.450;19.124;2023-05-27T05:46:48;19.10;99.90
44215;DHT22;29884;47.450;19.124;2023-05-27T05:49:14;19.20;99.90
44215;DHT22;29884;47.450;19.124;2023-05-27T05:51:40;19.20;99.90
44215;DHT22;29884;47.450;19.124;2023-05-27T05:54:05;19.20;99.90
44215;DHT22;29884;47.450;19.124;2023-05-27T05:56:32;19.40;99.90
44215;DHT22;29884;47.450;19.124;2023-05-27T05:58:58;19.30;99.90
44215;DHT22;29884;47.450;19.124;2023-05-27T06:01:25;19.40;99.90
44215;DHT22;29884;47.450;19.124;2023-05-27T06:03:53;19.50;99.90
44215;DHT22;29884;47.450;19.124;2023-05-27T06:06:18;19.60;99.90
44215;DHT22;29884;47.450;19.124;2023-05-27T06:08:44;19.70;99.90
44215;DHT22;29884;47.450;19.124;2023-05-27T06:11:11;19.60;99.90
44215;DHT22;29884;47.450;19.124;2023-05-27T06:13:36;19.60;99.90
44215;DHT22;29884;47.450;19.124;2023-05-27T06:16:02;19.70;99.90
44215;DHT22;29884;47.450;19.124;2023-05-27T06:18:28;19.80;99.90
44215;DHT22;29884;47.450;19.124;2023-05-27T06:20:53;19.90;99.90
44215;DHT22;29884;47.450;19.124;2023-05-27T06:23:19;19.90;99.90
44215;DHT22;29884;47.450;19.124;2023-05-27T06:25:45;19.90;99.90
44215;DHT22;29884;47.450;19.124;2023-05-27T06:28:11;19.90;99.90
44215;DHT22;29884;47.450;19.124;2023-05-27T06:30:37;20.10;99.90
44215;DHT22;29884;47.450;19.124;2023-05-27T06:33:03;20.30;99.90
44215;DHT22;29884;47.450;19.124;2023-05-27T06:38:23;20.60;99.90
44215;DHT22;29884;47.450;19.124;2023-05-27T06:40:49;20.50;99.90
44215;DHT22;29884;47.450;19.124;2023-05-27T06:43:15;20.60;99.90
44215;DHT22;29884;47.450;19.124;2023-05-27T06:45:40;20.50;99.90
44215;DHT22;29884;47.450;19.124;2023-05-27T06:48:06;20.50;99.90
44215;DHT22;29884;47.450;19.124;2023-05-27T06:50:32;20.40;99.90
44215;DHT22;29884;47.450;19.124;2023-05-27T06:52:59;20.30;99.90
44215;DHT22;29884;47.450;19.124;2023-05-27T06:55:25;20.20;99.90
44215;DHT22;29884;47.450;19.124;2023-05-27T06:57:51;20.20;99.90
44215;DHT22;29884;47.450;19.124;2023-05-27T07:00:17;20.40;99.90
44215;DHT22;29884;47.450;19.124;2023-05-27T07:02:43;20.50;99.90
44215;DHT22;29884;47.450;19.124;2023-05-27T07:05:08;20.50;99.90
44215;DHT22;29884;47.450;19.124;2023-05-27T07:07:34;20.70;99.90
44215;DHT22;29884;47.450;19.124;2023-05-27T07:10:00;20.90;99.90
44215;DHT22;29884;47.450;19.124;2023-05-27T07:12:25;21.00;99.90
44215;DHT22;29884;47.450;19.124;2023-05-27T07:14:51;20.90;99.90
44215;DHT22;29884;47.450;19.124;2023-05-27T07:17:17;20.90;99.90
44215;DHT22;29884;47.450;19.124;2023-05-27T07:19:43;20.90;99.90
44215;DHT22;29884;47.450;19.124;2023-05-27T07:22:08;21.00;99.90
44215;DHT22;29884;47.450;19.124;2023-05-27T07:24:34;21.10;99.90
44215;DHT22;29884;47.450;19.124;2023-05-27T07:27:00;21.20;99.90
44215;DHT22;29884;47.450;19.124;2023-05-27T07:29:26;21.20;99.70
44215;DHT22;29884;47.450;19.124;2023-05-27T07:31:52;21.30;99.90
44215;DHT22;29884;47.450;19.124;2023-05-27T07:34:18;21.40;99.00
44215;DHT22;29884;47.450;19.124;2023-05-27T07:36:46;21.50;99.10
44215;DHT22;29884;47.450;19.124;2023-05-27T07:39:11;21.50;97.50
44215;DHT22;29884;47.450;19.124;2023-05-27T07:41:37;21.50;97.90
44215;DHT22;29884;47.450;19.124;2023-05-27T07:44:03;21.70;98.70
44215;DHT22;29884;47.450;19.124;2023-05-27T07:46:28;21.70;96.80
44215;DHT22;29884;47.450;19.124;2023-05-27T07:48:55;21.80;96.50
44215;DHT22;29884;47.450;19.124;2023-05-27T07:51:21;21.90;96.90
44215;DHT22;29884;47.450;19.124;2023-05-27T07:53:47;21.90;96.00
44215;DHT22;29884;47.450;19.124;2023-05-27T07:56:13;21.90;95.60
44215;DHT22;29884;47.450;19.124;2023-05-27T07:58:39;22.20;95.90
44215;DHT22;29884;47.450;19.124;2023-05-27T08:01:05;22.20;94.60
44215;DHT22;29884;47.450;19.124;2023-05-27T08:03:31;22.20;95.00
44215;DHT22;29884;47.450;19.124;2023-05-27T08:05:57;22.30;94.40
44215;DHT22;29884;47.450;19.124;2023-05-27T08:08:22;22.30;93.80
44215;DHT22;29884;47.450;19.124;2023-05-27T08:10:48;22.30;93.40
44215;DHT22;29884;47.450;19.124;2023-05-27T08:13:14;22.30;92.80
44215;DHT22;29884;47.450;19.124;2023-05-27T08:15:40;22.40;92.80
44215;DHT22;29884;47.450;19.124;2023-05-27T08:18:05;22.60;92.40
44215;DHT22;29884;47.450;19.124;2023-05-27T08:20:31;22.50;91.80
44215;DHT22;29884;47.450;19.124;2023-05-27T08:22:57;22.30;91.20
44215;DHT22;29884;47.450;19.124;2023-05-27T08:25:22;22.60;92.60
44215;DHT22;29884;47.450;19.124;2023-05-27T08:27:52;22.80;91.70
44215;DHT22;29884;47.450;19.124;2023-05-27T08:30:19;22.80;91.00
44215;DHT22;29884;47.450;19.124;2023-05-27T08:32:45;23.00;91.10
44215;DHT22;29884;47.450;19.124;2023-05-27T08:35:11;23.30;90.60
44215;DHT22;29884;47.450;19.124;2023-05-27T08:37:38;23.40;87.50
44215;DHT22;29884;47.450;19.124;2023-05-27T08:40:06;23.50;86.90
44215;DHT22;29884;47.450;19.124;2023-05-27T08:42:33;23.60;89.20
44215;DHT22;29884;47.450;19.124;2023-05-27T08:44:59;23.70;87.20
44215;DHT22;29884;47.450;19.124;2023-05-27T08:47:28;23.70;85.40
44215;DHT22;29884;47.450;19.124;2023-05-27T08:49:57;23.70;86.00
44215;DHT22;29884;47.450;19.124;2023-05-27T08:52:29;23.90;85.80
44215;DHT22;29884;47.450;19.124;2023-05-27T08:54:57;24.00;84.60
44215;DHT22;29884;47.450;19.124;2023-05-27T08:57:28;24.10;82.90
44215;DHT22;29884;47.450;19.124;2023-05-27T08:59:54;24.30;83.50
44215;DHT22;29884;47.450;19.124;2023-05-27T09:02:21;24.10;80.90
44215;DHT22;29884;47.450;19.124;2023-05-27T09:04:47;24.20;83.10
44215;DHT22;29884;47.450;19.124;2023-05-27T09:07:14;24.20;79.10
44215;DHT22;29884;47.450;19.124;2023-05-27T09:09:40;24.50;81.40
44215;DHT22;29884;47.450;19.124;2023-05-27T09:12:06;24.70;79.80
44215;DHT22;29884;47.450;19.124;2023-05-27T09:14:34;24.60;79.80
44215;DHT22;29884;47.450;19.124;2023-05-27T09:17:07;24.70;78.90
44215;DHT22;29884;47.450;19.124;2023-05-27T09:19:32;24.60;78.60
44215;DHT22;29884;47.450;19.124;2023-05-27T09:21:58;24.90;77.60
44215;DHT22;29884;47.450;19.124;2023-05-27T09:24:24;25.20;75.60
44215;DHT22;29884;47.450;19.124;2023-05-27T09:26:54;25.40;77.60
44215;DHT22;29884;47.450;19.124;2023-05-27T09:29:23;25.00;75.00
44215;DHT22;29884;47.450;19.124;2023-05-27T09:31:54;24.60;77.30
44215;DHT22;29884;47.450;19.124;2023-05-27T09:34:20;25.00;77.20
44215;DHT22;29884;47.450;19.124;2023-05-27T09:36:47;24.80;74.50
44215;DHT22;29884;47.450;19.124;2023-05-27T09:39:22;24.70;74.70
44215;DHT22;29884;47.450;19.124;2023-05-27T09:41:52;24.80;74.80
44215;DHT22;29884;47.450;19.124;2023-05-27T09:44:18;24.80;74.00
44215;DHT22;29884;47.450;19.124;2023-05-27T09:46:44;25.20;74.90
44215;DHT22;29884;47.450;19.124;2023-05-27T09:49:13;25.00;73.10
44215;DHT22;29884;47.450;19.124;2023-05-27T09:51:41;25.40;77.20
44215;DHT22;29884;47.450;19.124;2023-05-27T09:54:07;25.70;73.60
44215;DHT22;29884;47.450;19.124;2023-05-27T09:56:35;25.00;70.80
44215;DHT22;29884;47.450;19.124;2023-05-27T09:59:00;25.30;70.40
44215;DHT22;29884;47.450;19.124;2023-05-27T10:01:28;25.40;72.10
44215;DHT22;29884;47.450;19.124;2023-05-27T10:03:55;25.40;70.30
44215;DHT22;29884;47.450;19.124;2023-05-27T10:06:22;25.60;70.80
44215;DHT22;29884;47.450;19.124;2023-05-27T10:08:50;25.40;70.70
44215;DHT22;29884;47.450;19.124;2023-05-27T10:11:18;25.70;73.70
44215;DHT22;29884;47.450;19.124;2023-05-27T10:13:44;26.10;73.10
44215;DHT22;29884;47.450;19.124;2023-05-27T10:16:21;26.20;73.30
44215;DHT22;29884;47.450;19.124;2023-05-27T10:18:48;25.80;69.40
44215;DHT22;29884;47.450;19.124;2023-05-27T10:21:21;25.40;71.50
44215;DHT22;29884;47.450;19.124;2023-05-27T10:24:01;25.10;74.20
44215;DHT22;29884;47.450;19.124;2023-05-27T10:26:35;24.80;71.90
44215;DHT22;29884;47.450;19.124;2023-05-27T10:29:14;24.80;74.60
44215;DHT22;29884;47.450;19.124;2023-05-27T10:31:50;24.90;72.50
44215;DHT22;29884;47.450;19.124;2023-05-27T10:34:16;24.80;75.00
44215;DHT22;29884;47.450;19.124;2023-05-27T10:36:44;24.60;73.50
44215;DHT22;29884;47.450;19.124;2023-05-27T10:39:18;24.40;72.70
44215;DHT22;29884;47.450;19.124;2023-05-27T10:41:54;24.50;74.90
44215;DHT22;29884;47.450;19.124;2023-05-27T10:44:32;24.50;73.80
44215;DHT22;29884;47.450;19.124;2023-05-27T10:47:11;24.40;76.00
44215;DHT22;29884;47.450;19.124;2023-05-27T10:49:40;24.20;74.40
44215;DHT22;29884;47.450;19.124;2023-05-27T10:52:10;24.10;74.00
44215;DHT22;29884;47.450;19.124;2023-05-27T10:54:38;24.10;75.50
44215;DHT22;29884;47.450;19.124;2023-05-27T10:57:04;24.20;77.00
44215;DHT22;29884;47.450;19.124;2023-05-27T10:59:48;24.20;74.80
44215;DHT22;29884;47.450;19.124;2023-05-27T11:02:16;24.20;76.30
44215;DHT22;29884;47.450;19.124;2023-05-27T11:04:41;24.40;74.40
44215;DHT22;29884;47.450;19.124;2023-05-27T11:07:07;24.50;75.00
44215;DHT22;29884;47.450;19.124;2023-05-27T11:12:19;24.10;73.90
44215;DHT22;29884;47.450;19.124;2023-05-27T11:14:49;24.00;74.50
44215;DHT22;29884;47.450;19.124;2023-05-27T11:17:15;24.00;74.80
44215;DHT22;29884;47.450;19.124;2023-05-27T11:19:42;24.00;74.60
44215;DHT22;29884;47.450;19.124;2023-05-27T11:22:08;24.00;73.40
44215;DHT22;29884;47.450;19.124;2023-05-27T11:24:38;24.00;75.00
44215;DHT22;29884;47.450;19.124;2023-05-27T11:27:13;23.90;75.50
44215;DHT22;29884;47.450;19.124;2023-05-27T11:29:48;23.90;75.50
44215;DHT22;29884;47.450;19.124;2023-05-27T11:32:16;23.90;74.90
44215;DHT22;29884;47.450;19.124;2023-05-27T11:34:44;24.00;76.00
44215;DHT22;29884;47.450;19.124;2023-05-27T11:37:10;24.10;73.80
44215;DHT22;29884;47.450;19.124;2023-05-27T11:39:37;24.50;72.60
44215;DHT22;29884;47.450;19.124;2023-05-27T11:42:05;24.70;71.30
44215;DHT22;29884;47.450;19.124;2023-05-27T11:44:35;24.50;71.90
44215;DHT22;29884;47.450;19.124;2023-05-27T11:47:01;24.30;72.10
44215;DHT22;29884;47.450;19.124;2023-05-27T11:49:27;24.10;73.40
44215;DHT22;29884;47.450;19.124;2023-05-27T11:51:56;24.00;73.90
44215;DHT22;29884;47.450;19.124;2023-05-27T11:54:27;23.90;74.70
44215;DHT22;29884;47.450;19.124;2023-05-27T11:56:55;23.80;74.40
44215;DHT22;29884;47.450;19.124;2023-05-27T11:59:22;23.90;75.70
44215;DHT22;29884;47.450;19.124;2023-05-27T12:01:49;23.90;74.80
44215;DHT22;29884;47.450;19.124;2023-05-27T12:04:15;24.10;75.50
44215;DHT22;29884;47.450;19.124;2023-05-27T12:06:42;24.80;74.20
44215;DHT22;29884;47.450;19.124;2023-05-27T12:09:08;25.00;69.80
44215;DHT22;29884;47.450;19.124;2023-05-27T12:11:35;25.00;70.40
44215;DHT22;29884;47.450;19.124;2023-05-27T12:14:01;25.10;69.80
44215;DHT22;29884;47.450;19.124;2023-05-27T12:16:27;24.90;71.30
44215;DHT22;29884;47.450;19.124;2023-05-27T12:18:53;24.70;68.60
44215;DHT22;29884;47.450;19.124;2023-05-27T12:21:20;24.50;70.20
44215;DHT22;29884;47.450;19.124;2023-05-27T12:23:46;24.30;68.90
44215;DHT22;29884;47.450;19.124;2023-05-27T12:26:13;24.30;70.20
44215;DHT22;29884;47.450;19.124;2023-05-27T12:28:40;24.60;68.80
44215;DHT22;29884;47.450;19.124;2023-05-27T12:31:06;25.10;66.70
44215;DHT22;29884;47.450;19.124;2023-05-27T12:33:32;25.00;65.20
44215;DHT22;29884;47.450;19.124;2023-05-27T12:35:58;24.80;70.50
44215;DHT22;29884;47.450;19.124;2023-05-27T12:38:24;24.60;67.10
44215;DHT22;29884;47.450;19.124;2023-05-27T12:40:50;24.60;67.40
44215;DHT22;29884;47.450;19.124;2023-05-27T12:43:19;24.50;68.30
44215;DHT22;29884;47.450;19.124;2023-05-27T12:45:46;24.80;68.10
44215;DHT22;29884;47.450;19.124;2023-05-27T12:48:13;25.40;68.40
44215;DHT22;29884;47.450;19.124;2023-05-27T12:50:39;25.10;65.80
44215;DHT22;29884;47.450;19.124;2023-05-27T12:53:05;24.80;66.40
44215;DHT22;29884;47.450;19.124;2023-05-27T12:55:31;25.10;67.00
44215;DHT22;29884;47.450;19.124;2023-05-27T12:57:56;25.70;66.80
44215;DHT22;29884;47.450;19.124;2023-05-27T13:00:22;26.00;61.80
44215;DHT22;29884;47.450;19.124;2023-05-27T13:02:49;25.50;64.30
44215;DHT22;29884;47.450;19.124;2023-05-27T13:05:15;24.70;67.60
44215;DHT22;29884;47.450;19.124;2023-05-27T13:07:59;24.50;69.90
44215;DHT22;29884;47.450;19.124;2023-05-27T13:10:25;24.30;71.10
44215;DHT22;29884;47.450;19.124;2023-05-27T13:12:51;24.10;72.20
44215;DHT22;29884;47.450;19.124;2023-05-27T13:15:17;24.00;72.10
44215;DHT22;29884;47.450;19.124;2023-05-27T13:17:47;23.80;73.20
44215;DHT22;29884;47.450;19.124;2023-05-27T13:20:13;23.60;73.60
44215;DHT22;29884;47.450;19.124;2023-05-27T13:22:41;23.70;75.10
44215;DHT22;29884;47.450;19.124;2023-05-27T13:25:07;23.70;75.50
44215;DHT22;29884;47.450;19.124;2023-05-27T13:27:32;23.70;74.60
44215;DHT22;29884;47.450;19.124;2023-05-27T13:29:58;23.80;75.70
44215;DHT22;29884;47.450;19.124;2023-05-27T13:32:24;23.90;75.70
44215;DHT22;29884;47.450;19.124;2023-05-27T13:34:50;24.00;77.60
44215;DHT22;29884;47.450;19.124;2023-05-27T13:37:17;23.80;76.10
44215;DHT22;29884;47.450;19.124;2023-05-27T13:39:43;23.80;76.60
44215;DHT22;29884;47.450;19.124;2023-05-27T13:42:12;23.80;77.10
44215;DHT22;29884;47.450;19.124;2023-05-27T13:44:38;23.90;78.60
44215;DHT22;29884;47.450;19.124;2023-05-27T13:47:04;23.90;76.80
44215;DHT22;29884;47.450;19.124;2023-05-27T13:49:31;23.60;77.60
44215;DHT22;29884;47.450;19.124;2023-05-27T13:51:57;23.70;78.10
44215;DHT22;29884;47.450;19.124;2023-05-27T13:54:23;23.70;78.40
44215;DHT22;29884;47.450;19.124;2023-05-27T13:56:49;23.70;80.10
44215;DHT22;29884;47.450;19.124;2023-05-27T13:59:16;24.00;81.10
44215;DHT22;29884;47.450;19.124;2023-05-27T14:01:41;24.50;78.30
44215;DHT22;29884;47.450;19.124;2023-05-27T14:04:07;24.90;75.40
44215;DHT22;29884;47.450;19.124;2023-05-27T14:06:33;24.70;76.90
44215;DHT22;29884;47.450;19.124;2023-05-27T14:08:58;24.70;76.00
44215;DHT22;29884;47.450;19.124;2023-05-27T14:11:25;24.70;76.00
44215;DHT22;29884;47.450;19.124;2023-05-27T14:13:51;24.80;74.50
44215;DHT22;29884;47.450;19.124;2023-05-27T14:16:18;25.00;74.30
44215;DHT22;29884;47.450;19.124;2023-05-27T14:18:44;25.40;73.30
44215;DHT22;29884;47.450;19.124;2023-05-27T14:21:09;25.60;72.40
44215;DHT22;29884;47.450;19.124;2023-05-27T14:23:35;25.40;71.60
44215;DHT22;29884;47.450;19.124;2023-05-27T14:26:01;25.00;72.30
44215;DHT22;29884;47.450;19.124;2023-05-27T14:28:27;24.90;72.70
44215;DHT22;29884;47.450;19.124;2023-05-27T14:30:52;24.60;71.40
44215;DHT22;29884;47.450;19.124;2023-05-27T14:33:18;24.40;71.50
44215;DHT22;29884;47.450;19.124;2023-05-27T14:35:44;24.30;72.90
44215;DHT22;29884;47.450;19.124;2023-05-27T14:38:11;24.30;73.80
44215;DHT22;29884;47.450;19.124;2023-05-27T14:40:38;24.10;74.40
44215;DHT22;29884;47.450;19.124;2023-05-27T14:43:04;24.10;75.80
44215;DHT22;29884;47.450;19.124;2023-05-27T14:45:33;24.00;77.40
44215;DHT22;29884;47.450;19.124;2023-05-27T14:47:59;23.90;77.50
44215;DHT22;29884;47.450;19.124;2023-05-27T14:50:25;23.70;77.70
44215;DHT22;29884;47.450;19.124;2023-05-27T14:52:52;23.60;78.90
44215;DHT22;29884;47.450;19.124;2023-05-27T14:55:18;23.60;79.70
44215;DHT22;29884;47.450;19.124;2023-05-27T14:57:44;23.50;79.80
44215;DHT22;29884;47.450;19.124;2023-05-27T15:00:11;23.40;80.20
44215;DHT22;29884;47.450;19.124;2023-05-27T15:02:37;23.50;81.00
44215;DHT22;29884;47.450;19.124;2023-05-27T15:05:04;23.90;80.30
44215;DHT22;29884;47.450;19.124;2023-05-27T15:07:32;24.30;80.50
44215;DHT22;29884;47.450;19.124;2023-05-27T15:09:58;24.40;78.30
44215;DHT22;29884;47.450;19.124;2023-05-27T15:12:24;24.70;77.50
44215;DHT22;29884;47.450;19.124;2023-05-27T15:14:50;24.80;76.20
44215;DHT22;29884;47.450;19.124;2023-05-27T15:17:16;24.80;74.10
44215;DHT22;29884;47.450;19.124;2023-05-27T15:19:42;24.80;74.60
44215;DHT22;29884;47.450;19.124;2023-05-27T15:22:08;24.70;75.20
44215;DHT22;29884;47.450;19.124;2023-05-27T15:24:34;24.60;75.80
44215;DHT22;29884;47.450;19.124;2023-05-27T15:27:00;24.50;74.80